Aviation Digital Data Service (ADDS)

Output produced by METARs form (0002 UTC 19 August 2019)
found at http://www.aviationweather.gov/metar/data/
 
METAR text: KEYW 182353Z 08008KT 10SM CLR 31/23 A3003 RMK AO2 SLP170 T03110233 10333 20311 53001
Conditions at: KEYW (KEY WEST , FL, US) observed 2353 UTC 18 August 2019
Temperature: 31.1°C (88°F)
Dewpoint: 23.3°C (74°F) [RH = 63%]
Pressure (altimeter): 30.03 inches Hg (1017.0 mb)
[Sea-level pressure: 1017.0 mb]
Winds: from the E (80 degrees) at 9 MPH (8 knots; 4.1 m/s)
Visibility: 10 or more miles (16+ km)
Ceiling: at least 12,000 feet AGL
Clouds: sky clear below 12,000 feet AGL
Weather: no significant weather observed at this time

METAR text: KEYW 182253Z 10010KT 10SM CLR 31/25 A3003 RMK AO2 SLP167 T03110250
Conditions at: KEYW (KEY WEST , FL, US) observed 2253 UTC 18 August 2019
Temperature: 31.1°C (88°F)
Dewpoint: 25.0°C (77°F) [RH = 70%]
Pressure (altimeter): 30.03 inches Hg (1017.0 mb)
[Sea-level pressure: 1016.7 mb]
Winds: from the E (100 degrees) at 12 MPH (10 knots; 5.1 m/s)
Visibility: 10 or more miles (16+ km)
Ceiling: at least 12,000 feet AGL
Clouds: sky clear below 12,000 feet AGL
Weather: no significant weather observed at this time

METAR text: KEYW 182153Z 10012KT 10SM CLR 32/25 A3002 RMK AO2 SLP167 T03220250
Conditions at: KEYW (KEY WEST , FL, US) observed 2153 UTC 18 August 2019
Temperature: 32.2°C (90°F)
Dewpoint: 25.0°C (77°F) [RH = 66%]
Pressure (altimeter): 30.02 inches Hg (1016.7 mb)
[Sea-level pressure: 1016.7 mb]
Winds: from the E (100 degrees) at 14 MPH (12 knots; 6.2 m/s)
Visibility: 10 or more miles (16+ km)
Ceiling: at least 12,000 feet AGL
Clouds: sky clear below 12,000 feet AGL
Weather: no significant weather observed at this time

METAR text: KEYW 182053Z 10011KT 10SM FEW028 33/24 A3003 RMK AO2 SLP169 T03280244 56018
Conditions at: KEYW (KEY WEST , FL, US) observed 2053 UTC 18 August 2019
Temperature: 32.8°C (91°F)
Dewpoint: 24.4°C (76°F) [RH = 61%]
Pressure (altimeter): 30.03 inches Hg (1017.0 mb)
[Sea-level pressure: 1016.9 mb]
Winds: from the E (100 degrees) at 13 MPH (11 knots; 5.7 m/s)
Visibility: 10 or more miles (16+ km)
Ceiling: at least 12,000 feet AGL
Clouds: few clouds at 2800 feet AGL
Weather: no significant weather observed at this time

METAR text: KEYW 181953Z 10010KT 10SM FEW026 33/25 A3005 RMK AO2 LTG DSNT NW SLP175 T03330250
Conditions at: KEYW (KEY WEST , FL, US) observed 1953 UTC 18 August 2019
Temperature: 33.3°C (92°F)
Dewpoint: 25.0°C (77°F) [RH = 62%]
Pressure (altimeter): 30.05 inches Hg (1017.7 mb)
[Sea-level pressure: 1017.5 mb]
Winds: from the E (100 degrees) at 12 MPH (10 knots; 5.1 m/s)
Visibility: 10 or more miles (16+ km)
Ceiling: at least 12,000 feet AGL
Clouds: few clouds at 2600 feet AGL
Weather: no significant weather observed at this time

METAR text: KEYW 181853Z 11010KT 10SM CLR 33/25 A3006 RMK AO2 SLP179 T03330250
Conditions at: KEYW (KEY WEST , FL, US) observed 1853 UTC 18 August 2019
Temperature: 33.3°C (92°F)
Dewpoint: 25.0°C (77°F) [RH = 62%]
Pressure (altimeter): 30.06 inches Hg (1018.0 mb)
[Sea-level pressure: 1017.9 mb]
Winds: from the ESE (110 degrees) at 12 MPH (10 knots; 5.1 m/s)
Visibility: 10 or more miles (16+ km)
Ceiling: at least 12,000 feet AGL
Clouds: sky clear below 12,000 feet AGL
Weather: no significant weather observed at this time

METAR text: KEYW 181753Z 11008KT 10SM FEW041 33/25 A3008 RMK AO2 SLP187 T03330250 10333 20300 50003
Conditions at: KEYW (KEY WEST , FL, US) observed 1753 UTC 18 August 2019
Temperature: 33.3°C (92°F)
Dewpoint: 25.0°C (77°F) [RH = 62%]
Pressure (altimeter): 30.08 inches Hg (1018.7 mb)
[Sea-level pressure: 1018.7 mb]
Winds: from the ESE (110 degrees) at 9 MPH (8 knots; 4.1 m/s)
Visibility: 10 or more miles (16+ km)
Ceiling: at least 12,000 feet AGL
Clouds: few clouds at 4100 feet AGL
Weather: no significant weather observed at this time

METAR text: KEYW 181653Z 10009KT 10SM FEW020 33/25 A3009 RMK AO2 SLP188 T03280250
Conditions at: KEYW (KEY WEST , FL, US) observed 1653 UTC 18 August 2019
Temperature: 32.8°C (91°F)
Dewpoint: 25.0°C (77°F) [RH = 64%]
Pressure (altimeter): 30.09 inches Hg (1019.0 mb)
[Sea-level pressure: 1018.8 mb]
Winds: from the E (100 degrees) at 10 MPH (9 knots; 4.6 m/s)
Visibility: 10 or more miles (16+ km)
Ceiling: at least 12,000 feet AGL
Clouds: few clouds at 2000 feet AGL
Weather: no significant weather observed at this time

METAR text: KEYW 181553Z 11011KT 10SM FEW024 32/25 A3009 RMK AO2 SLP188 T03220250
Conditions at: KEYW (KEY WEST , FL, US) observed 1553 UTC 18 August 2019
Temperature: 32.2°C (90°F)
Dewpoint: 25.0°C (77°F) [RH = 66%]
Pressure (altimeter): 30.09 inches Hg (1019.0 mb)
[Sea-level pressure: 1018.8 mb]
Winds: from the ESE (110 degrees) at 13 MPH (11 knots; 5.7 m/s)
Visibility: 10 or more miles (16+ km)
Ceiling: at least 12,000 feet AGL
Clouds: few clouds at 2400 feet AGL
Weather: no significant weather observed at this time

METAR text: KEYW 181453Z 11011KT 10SM FEW020 32/25 A3007 RMK AO2 SLP183 T03170250 53007
Conditions at: KEYW (KEY WEST , FL, US) observed 1453 UTC 18 August 2019
Temperature: 31.7°C (89°F)
Dewpoint: 25.0°C (77°F) [RH = 68%]
Pressure (altimeter): 30.07 inches Hg (1018.4 mb)
[Sea-level pressure: 1018.3 mb]
Winds: from the ESE (110 degrees) at 13 MPH (11 knots; 5.7 m/s)
Visibility: 10 or more miles (16+ km)
Ceiling: at least 12,000 feet AGL
Clouds: few clouds at 2000 feet AGL
Weather: no significant weather observed at this time

METAR text: KEYW 181353Z 10009KT 10SM FEW022 31/25 A3007 RMK AO2 SLP182 T03110250
Conditions at: KEYW (KEY WEST , FL, US) observed 1353 UTC 18 August 2019
Temperature: 31.1°C (88°F)
Dewpoint: 25.0°C (77°F) [RH = 70%]
Pressure (altimeter): 30.07 inches Hg (1018.4 mb)
[Sea-level pressure: 1018.2 mb]
Winds: from the E (100 degrees) at 10 MPH (9 knots; 4.6 m/s)
Visibility: 10 or more miles (16+ km)
Ceiling: at least 12,000 feet AGL
Clouds: few clouds at 2200 feet AGL
Weather: no significant weather observed at this time

METAR text: KEYW 181253Z 11010KT 10SM CLR 31/25 A3006 RMK AO2 SLP178 T03060250
Conditions at: KEYW (KEY WEST , FL, US) observed 1253 UTC 18 August 2019
Temperature: 30.6°C (87°F)
Dewpoint: 25.0°C (77°F) [RH = 72%]
Pressure (altimeter): 30.06 inches Hg (1018.0 mb)
[Sea-level pressure: 1017.8 mb]
Winds: from the ESE (110 degrees) at 12 MPH (10 knots; 5.1 m/s)
Visibility: 10 or more miles (16+ km)
Ceiling: at least 12,000 feet AGL
Clouds: sky clear below 12,000 feet AGL
Weather: no significant weather observed at this time

METAR text: KEYW 181153Z 09010KT 10SM SCT025 30/24 A3005 RMK AO2 SLP177 70001 T03000244 10300 20294 53004
Conditions at: KEYW (KEY WEST , FL, US) observed 1153 UTC 18 August 2019
Temperature: 30.0°C (86°F)
Dewpoint: 24.4°C (76°F) [RH = 72%]
Pressure (altimeter): 30.05 inches Hg (1017.7 mb)
[Sea-level pressure: 1017.7 mb]
Winds: from the E (90 degrees) at 12 MPH (10 knots; 5.1 m/s)
Visibility: 10 or more miles (16+ km)
Ceiling: at least 12,000 feet AGL
Clouds: scattered clouds at 2500 feet AGL
Weather: no significant weather observed at this time

METAR text: KEYW 181055Z 10008KT 10SM SCT025 30/25 A3004 RMK AO2 T03000250
Conditions at: KEYW (KEY WEST , FL, US) observed 1055 UTC 18 August 2019
Temperature: 30.0°C (86°F)
Dewpoint: 25.0°C (77°F) [RH = 75%]
Pressure (altimeter): 30.04 inches Hg (1017.4 mb)
Winds: from the E (100 degrees) at 9 MPH (8 knots; 4.1 m/s)
Visibility: 10 or more miles (16+ km)
Ceiling: at least 12,000 feet AGL
Clouds: scattered clouds at 2500 feet AGL
Weather: no significant weather observed at this time

METAR text: KEYW 181053Z 10009KT 10SM CLR 30/24 A3005 RMK AO2 SLP174 T03000244
Conditions at: KEYW (KEY WEST , FL, US) observed 1053 UTC 18 August 2019
Temperature: 30.0°C (86°F)
Dewpoint: 24.4°C (76°F) [RH = 72%]
Pressure (altimeter): 30.05 inches Hg (1017.7 mb)
[Sea-level pressure: 1017.4 mb]
Winds: from the E (100 degrees) at 10 MPH (9 knots; 4.6 m/s)
Visibility: 10 or more miles (16+ km)
Ceiling: at least 12,000 feet AGL
Clouds: sky clear below 12,000 feet AGL
Weather: no significant weather observed at this time

METAR text: KEYW 180953Z AUTO 11008KT 10SM FEW022 30/25 A3004 RMK AO2 SLP172 T03000250
Conditions at: KEYW (KEY WEST , FL, US) observed 0953 UTC 18 August 2019
Temperature: 30.0°C (86°F)
Dewpoint: 25.0°C (77°F) [RH = 75%]
Pressure (altimeter): 30.04 inches Hg (1017.4 mb)
[Sea-level pressure: 1017.2 mb]
Winds: from the ESE (110 degrees) at 9 MPH (8 knots; 4.1 m/s)
Visibility: 10 or more miles (16+ km)
Ceiling: at least 12,000 feet AGL
Clouds: few clouds at 2200 feet AGL
Weather: automated observation with no human augmentation;
there may or may not be significant weather present at this time

METAR text: KEYW 180853Z AUTO 12008KT 10SM CLR 29/24 A3004 RMK AO2 SLP172 T02940244 56008
Conditions at: KEYW (KEY WEST , FL, US) observed 0853 UTC 18 August 2019
Temperature: 29.4°C (85°F)
Dewpoint: 24.4°C (76°F) [RH = 75%]
Pressure (altimeter): 30.04 inches Hg (1017.4 mb)
[Sea-level pressure: 1017.2 mb]
Winds: from the ESE (120 degrees) at 9 MPH (8 knots; 4.1 m/s)
Visibility: 10 or more miles (16+ km)
Ceiling: at least 12,000 feet AGL
Clouds: sky clear below 12,000 feet AGL
Weather: automated observation with no human augmentation;
there may or may not be significant weather present at this time

METAR text: KEYW 180753Z AUTO 11010KT 10SM SCT021 30/25 A3005 RMK AO2 SLP174 T03000250
Conditions at: KEYW (KEY WEST , FL, US) observed 0753 UTC 18 August 2019
Temperature: 30.0°C (86°F)
Dewpoint: 25.0°C (77°F) [RH = 75%]
Pressure (altimeter): 30.05 inches Hg (1017.7 mb)
[Sea-level pressure: 1017.4 mb]
Winds: from the ESE (110 degrees) at 12 MPH (10 knots; 5.1 m/s)
Visibility: 10 or more miles (16+ km)
Ceiling: at least 12,000 feet AGL
Clouds: scattered clouds at 2100 feet AGL
Weather: automated observation with no human augmentation;
there may or may not be significant weather present at this time

METAR text: KEYW 180653Z AUTO 11010KT 10SM FEW022 30/25 A3006 RMK AO2 SLP178 T03000250
Conditions at: KEYW (KEY WEST , FL, US) observed 0653 UTC 18 August 2019
Temperature: 30.0°C (86°F)
Dewpoint: 25.0°C (77°F) [RH = 75%]
Pressure (altimeter): 30.06 inches Hg (1018.0 mb)
[Sea-level pressure: 1017.8 mb]
Winds: from the ESE (110 degrees) at 12 MPH (10 knots; 5.1 m/s)
Visibility: 10 or more miles (16+ km)
Ceiling: at least 12,000 feet AGL
Clouds: few clouds at 2200 feet AGL
Weather: automated observation with no human augmentation;
there may or may not be significant weather present at this time

METAR text: KEYW 180553Z AUTO 10007KT 10SM CLR 30/24 A3006 RMK AO2 SLP180 T03000244 10300 20300 58012
Conditions at: KEYW (KEY WEST , FL, US) observed 0553 UTC 18 August 2019
Temperature: 30.0°C (86°F)
Dewpoint: 24.4°C (76°F) [RH = 72%]
Pressure (altimeter): 30.06 inches Hg (1018.0 mb)
[Sea-level pressure: 1018.0 mb]
Winds: from the E (100 degrees) at 8 MPH (7 knots; 3.6 m/s)
Visibility: 10 or more miles (16+ km)
Ceiling: at least 12,000 feet AGL
Clouds: sky clear below 12,000 feet AGL
Weather: automated observation with no human augmentation;
there may or may not be significant weather present at this time

METAR text: KEYW 180453Z AUTO 12008KT 10SM SCT026 30/24 A3009 RMK AO2 SLP189 T03000244 403220272
Conditions at: KEYW (KEY WEST , FL, US) observed 0453 UTC 18 August 2019
Temperature: 30.0°C (86°F)
Dewpoint: 24.4°C (76°F) [RH = 72%]
Pressure (altimeter): 30.09 inches Hg (1019.0 mb)
[Sea-level pressure: 1018.9 mb]
Winds: from the ESE (120 degrees) at 9 MPH (8 knots; 4.1 m/s)
Visibility: 10 or more miles (16+ km)
Ceiling: at least 12,000 feet AGL
Clouds: scattered clouds at 2600 feet AGL
Weather: automated observation with no human augmentation;
there may or may not be significant weather present at this time

METAR text: KEYW 180353Z AUTO 12008KT 10SM FEW025 30/24 A3012 RMK AO2 SLP198 T03000244
Conditions at: KEYW (KEY WEST , FL, US) observed 0353 UTC 18 August 2019
Temperature: 30.0°C (86°F)
Dewpoint: 24.4°C (76°F) [RH = 72%]
Pressure (altimeter): 30.12 inches Hg (1020.1 mb)
[Sea-level pressure: 1019.8 mb]
Winds: from the ESE (120 degrees) at 9 MPH (8 knots; 4.1 m/s)
Visibility: 10 or more miles (16+ km)
Ceiling: at least 12,000 feet AGL
Clouds: few clouds at 2500 feet AGL
Weather: automated observation with no human augmentation;
there may or may not be significant weather present at this time

METAR text: KEYW 180253Z AUTO 11008KT 10SM CLR 30/24 A3010 RMK AO2 SLP192 T03000244 53013
Conditions at: KEYW (KEY WEST , FL, US) observed 0253 UTC 18 August 2019
Temperature: 30.0°C (86°F)
Dewpoint: 24.4°C (76°F) [RH = 72%]
Pressure (altimeter): 30.10 inches Hg (1019.4 mb)
[Sea-level pressure: 1019.2 mb]
Winds: from the ESE (110 degrees) at 9 MPH (8 knots; 4.1 m/s)
Visibility: 10 or more miles (16+ km)
Ceiling: at least 12,000 feet AGL
Clouds: sky clear below 12,000 feet AGL
Weather: automated observation with no human augmentation;
there may or may not be significant weather present at this time

METAR text: KEYW 180153Z AUTO 11010KT 10SM CLR 30/23 A3008 RMK AO2 SLP185 T03000233
Conditions at: KEYW (KEY WEST , FL, US) observed 0153 UTC 18 August 2019
Temperature: 30.0°C (86°F)
Dewpoint: 23.3°C (74°F) [RH = 67%]
Pressure (altimeter): 30.08 inches Hg (1018.7 mb)
[Sea-level pressure: 1018.5 mb]
Winds: from the ESE (110 degrees) at 12 MPH (10 knots; 5.1 m/s)
Visibility: 10 or more miles (16+ km)
Ceiling: at least 12,000 feet AGL
Clouds: sky clear below 12,000 feet AGL
Weather: automated observation with no human augmentation;
there may or may not be significant weather present at this time

METAR text: KEYW 180053Z 09005KT 10SM CLR 30/24 A3007 RMK AO2 SLP184 T03000239
Conditions at: KEYW (KEY WEST , FL, US) observed 0053 UTC 18 August 2019
Temperature: 30.0°C (86°F)
Dewpoint: 23.9°C (75°F) [RH = 70%]
Pressure (altimeter): 30.07 inches Hg (1018.4 mb)
[Sea-level pressure: 1018.4 mb]
Winds: from the E (90 degrees) at 6 MPH (5 knots; 2.6 m/s)
Visibility: 10 or more miles (16+ km)
Ceiling: at least 12,000 feet AGL
Clouds: sky clear below 12,000 feet AGL
Weather: no significant weather observed at this time

METAR text: KEYW 172353Z 10006KT 10SM CLR 30/25 A3006 RMK AO2 SLP180 T03000250 10322 20300 53004
Conditions at: KEYW (KEY WEST , FL, US) observed 2353 UTC 17 August 2019
Temperature: 30.0°C (86°F)
Dewpoint: 25.0°C (77°F) [RH = 75%]
Pressure (altimeter): 30.06 inches Hg (1018.0 mb)
[Sea-level pressure: 1018.0 mb]
Winds: from the E (100 degrees) at 7 MPH (6 knots; 3.1 m/s)
Visibility: 10 or more miles (16+ km)
Ceiling: at least 12,000 feet AGL
Clouds: sky clear below 12,000 feet AGL
Weather: no significant weather observed at this time

METAR text: KEYW 172253Z 10007KT 10SM CLR 31/25 A3004 RMK AO2 SLP173 T03060250
Conditions at: KEYW (KEY WEST , FL, US) observed 2253 UTC 17 August 2019
Temperature: 30.6°C (87°F)
Dewpoint: 25.0°C (77°F) [RH = 72%]
Pressure (altimeter): 30.04 inches Hg (1017.4 mb)
[Sea-level pressure: 1017.3 mb]
Winds: from the E (100 degrees) at 8 MPH (7 knots; 3.6 m/s)
Visibility: 10 or more miles (16+ km)
Ceiling: at least 12,000 feet AGL
Clouds: sky clear below 12,000 feet AGL
Weather: no significant weather observed at this time

METAR text: KEYW 172153Z 12008KT 10SM CLR 32/24 A3004 RMK AO2 SLP173 T03170244
Conditions at: KEYW (KEY WEST , FL, US) observed 2153 UTC 17 August 2019
Temperature: 31.7°C (89°F)
Dewpoint: 24.4°C (76°F) [RH = 65%]
Pressure (altimeter): 30.04 inches Hg (1017.4 mb)
[Sea-level pressure: 1017.3 mb]
Winds: from the ESE (120 degrees) at 9 MPH (8 knots; 4.1 m/s)
Visibility: 10 or more miles (16+ km)
Ceiling: at least 12,000 feet AGL
Clouds: sky clear below 12,000 feet AGL
Weather: no significant weather observed at this time

METAR text: KEYW 172053Z 13008KT 10SM FEW020 32/24 A3005 RMK AO2 SLP175 T03170244 56008
Conditions at: KEYW (KEY WEST , FL, US) observed 2053 UTC 17 August 2019
Temperature: 31.7°C (89°F)
Dewpoint: 24.4°C (76°F) [RH = 65%]
Pressure (altimeter): 30.05 inches Hg (1017.7 mb)
[Sea-level pressure: 1017.5 mb]
Winds: from the SE (130 degrees) at 9 MPH (8 knots; 4.1 m/s)
Visibility: 10 or more miles (16+ km)
Ceiling: at least 12,000 feet AGL
Clouds: few clouds at 2000 feet AGL
Weather: no significant weather observed at this time

METAR text: KEYW 171953Z 13008KT 10SM CLR 32/24 A3005 RMK AO2 SLP176 T03170239
Conditions at: KEYW (KEY WEST , FL, US) observed 1953 UTC 17 August 2019
Temperature: 31.7°C (89°F)
Dewpoint: 23.9°C (75°F) [RH = 63%]
Pressure (altimeter): 30.05 inches Hg (1017.7 mb)
[Sea-level pressure: 1017.6 mb]
Winds: from the SE (130 degrees) at 9 MPH (8 knots; 4.1 m/s)
Visibility: 10 or more miles (16+ km)
Ceiling: at least 12,000 feet AGL
Clouds: sky clear below 12,000 feet AGL
Weather: no significant weather observed at this time

METAR text: KEYW 171853Z 14007KT 10SM CLR 32/24 A3006 RMK AO2 SLP180 T03170239
Conditions at: KEYW (KEY WEST , FL, US) observed 1853 UTC 17 August 2019
Temperature: 31.7°C (89°F)
Dewpoint: 23.9°C (75°F) [RH = 63%]
Pressure (altimeter): 30.06 inches Hg (1018.0 mb)
[Sea-level pressure: 1018.0 mb]
Winds: from the SE (140 degrees) at 8 MPH (7 knots; 3.6 m/s)
Visibility: 10 or more miles (16+ km)
Ceiling: at least 12,000 feet AGL
Clouds: sky clear below 12,000 feet AGL
Weather: no significant weather observed at this time

METAR text: KEYW 171753Z 17005KT 10SM CLR 31/24 A3007 RMK AO2 SLP184 60001 T03060244 10311 20278 58011
Conditions at: KEYW (KEY WEST , FL, US) observed 1753 UTC 17 August 2019
Temperature: 30.6°C (87°F)
Dewpoint: 24.4°C (76°F) [RH = 70%]
Pressure (altimeter): 30.07 inches Hg (1018.4 mb)
[Sea-level pressure: 1018.4 mb]
Winds: from the S (170 degrees) at 6 MPH (5 knots; 2.6 m/s)
Visibility: 10 or more miles (16+ km)
Ceiling: at least 12,000 feet AGL
Clouds: sky clear below 12,000 feet AGL
Weather: no significant weather observed at this time

METAR text: KEYW 171653Z 20008KT 10SM CLR 31/25 A3009 RMK AO2 SLP189 T03060250
Conditions at: KEYW (KEY WEST , FL, US) observed 1653 UTC 17 August 2019
Temperature: 30.6°C (87°F)
Dewpoint: 25.0°C (77°F) [RH = 72%]
Pressure (altimeter): 30.09 inches Hg (1019.0 mb)
[Sea-level pressure: 1018.9 mb]
Winds: from the SSW (200 degrees) at 9 MPH (8 knots; 4.1 m/s)
Visibility: 10 or more miles (16+ km)
Ceiling: at least 12,000 feet AGL
Clouds: sky clear below 12,000 feet AGL
Weather: no significant weather observed at this time

METAR text: KEYW 171553Z 20010KT 10SM CLR 31/24 A3010 RMK AO2 SLP192 T03060239
Conditions at: KEYW (KEY WEST , FL, US) observed 1553 UTC 17 August 2019
Temperature: 30.6°C (87°F)
Dewpoint: 23.9°C (75°F) [RH = 68%]
Pressure (altimeter): 30.10 inches Hg (1019.4 mb)
[Sea-level pressure: 1019.2 mb]
Winds: from the SSW (200 degrees) at 12 MPH (10 knots; 5.1 m/s)
Visibility: 10 or more miles (16+ km)
Ceiling: at least 12,000 feet AGL
Clouds: sky clear below 12,000 feet AGL
Weather: no significant weather observed at this time

METAR text: KEYW 171453Z 20010KT 10SM CLR 30/24 A3011 RMK AO2 SLP194 60001 T03000239 51013
Conditions at: KEYW (KEY WEST , FL, US) observed 1453 UTC 17 August 2019
Temperature: 30.0°C (86°F)
Dewpoint: 23.9°C (75°F) [RH = 70%]
Pressure (altimeter): 30.11 inches Hg (1019.7 mb)
[Sea-level pressure: 1019.4 mb]
Winds: from the SSW (200 degrees) at 12 MPH (10 knots; 5.1 m/s)
Visibility: 10 or more miles (16+ km)
Ceiling: at least 12,000 feet AGL
Clouds: sky clear below 12,000 feet AGL
Weather: no significant weather observed at this time

METAR text: KEYW 171353Z 22010KT 10SM FEW075 SCT090 SCT110 29/24 A3010 RMK AO2 RAB23E43 SLP191 P0001 T02890244
Conditions at: KEYW (KEY WEST , FL, US) observed 1353 UTC 17 August 2019
Temperature: 28.9°C (84°F)
Dewpoint: 24.4°C (76°F) [RH = 77%]
Pressure (altimeter): 30.10 inches Hg (1019.4 mb)
[Sea-level pressure: 1019.1 mb]
Winds: from the SW (220 degrees) at 12 MPH (10 knots; 5.1 m/s)
Visibility: 10 or more miles (16+ km)
Ceiling: at least 12,000 feet AGL
Clouds: few clouds at 7500 feet AGL
scattered clouds at 9000 feet AGL
scattered clouds at 11000 feet AGL
Weather: no significant weather observed at this time

METAR text: KEYW 171316Z 22014G20KT 10SM FEW015 SCT023 BKN031 29/24 A3009 RMK AO2 T02890244
Conditions at: KEYW (KEY WEST , FL, US) observed 1316 UTC 17 August 2019
Temperature: 28.9°C (84°F)
Dewpoint: 24.4°C (76°F) [RH = 77%]
Pressure (altimeter): 30.09 inches Hg (1019.0 mb)
Winds: from the SW (220 degrees) at 16 MPH (14 knots; 7.2 m/s)
gusting to 23 MPH (20 knots; 10.3 m/s)
Visibility: 10 or more miles (16+ km)
Ceiling: 3100 feet AGL
Clouds: few clouds at 1500 feet AGL
scattered clouds at 2300 feet AGL
broken clouds at 3100 feet AGL
Weather: no significant weather observed at this time

METAR text: KEYW 171253Z 17011KT 10SM FEW028 SCT035 30/24 A3008 RMK AO2 SLP185 T03000244
Conditions at: KEYW (KEY WEST , FL, US) observed 1253 UTC 17 August 2019
Temperature: 30.0°C (86°F)
Dewpoint: 24.4°C (76°F) [RH = 72%]
Pressure (altimeter): 30.08 inches Hg (1018.7 mb)
[Sea-level pressure: 1018.5 mb]
Winds: from the S (170 degrees) at 13 MPH (11 knots; 5.7 m/s)
Visibility: 10 or more miles (16+ km)
Ceiling: at least 12,000 feet AGL
Clouds: few clouds at 2800 feet AGL
scattered clouds at 3500 feet AGL
Weather: no significant weather observed at this time

Forecast for: KEYW (KEY WEST , FL, US)
Text: KEYW 182348Z 1900/1924 09008KT P6SM FEW025
Forecast period: 0000 to 0800 UTC 19 August 2019
Forecast type: FROM: standard forecast or significant change
Winds: from the E (90 degrees) at 9 MPH (8 knots; 4.1 m/s)
Visibility: 6 or more miles 10+ km)
Ceiling: at least 12,000 feet AGL
Clouds: few clouds at 2500 feet AGL
Weather: no significant weather forecast for this period
Text: FM190800 08010KT P6SM VCSH SCT025
Forecast period: 0800 UTC 19 August 2019 to 0000 UTC 20 August 2019
Forecast type: FROM: standard forecast or significant change
Winds: from the E (80 degrees) at 12 MPH (10 knots; 5.1 m/s)
Visibility: 6 or more miles 10+ km)
Ceiling: at least 12,000 feet AGL
Clouds: scattered clouds at 2500 feet AGL
Weather: VCSH  (showers in vicinity)